Decoded Metar for PALP (NUIQSUT VILLAGE in AK, USA) (IATA:N/A) | Meteo·Mobile Aviation Weather
aviador You're here:

PALP Decoded Metar

NUIQSUT VILLAGE in AK, USA
Report Time2018-09-24 18:45:00
UTC Time2018-09-24 19:01:14
Flight Rules mvfr MVFR
Wind050° at 14 kt
W.Decomp.*RWY 03: 14.0 kt HW 0.2 kt LCW
W.Rank050° ranks 2
Current wind is above 050° avg. (11.5)
Visibility9999 m
Phenomena:N/A
Clouds:Scattered 009 Hf
Broken 011 Hf
Broken 033 Hf
Expected CloudBase > 800 ft AGL from Temp-Dew spread
Ceiling1,100 ft
Temp-1°C (ISA -16)
Dew Point-3°C (86% RH)
AAT-8.4°C
QNH1014 hPa
Density Alt-1,906 ft
Elevation16 ft
Report Wrong Elevation
Raw Report
PALP 241845Z 05014KT 10SM SCT009 BKN011 BKN033 M01/M03 A2995=

Extra information for PALP:More info

Metar Taf Metar & Taf Last 4 Metars F.Rules Stats Wind Profile Meteogram Temp Stats Airport Information Weather charts Add Link Nearby VenuesMetar ALERT Operation Metar Decoded Social comments

AIRNAV info for PALP